createdAt,value
2022-10-01T17:58:19.824Z,24.80
2022-10-01T18:00:22.613Z,17.90
2022-10-01T18:02:42.218Z,15.00
2022-10-01T18:04:46.444Z,13.90
2022-10-01T18:06:49.454Z,13.50
2022-10-01T18:08:55.435Z,13.30
2022-10-01T18:11:11.113Z,13.20
2022-10-01T18:13:14.183Z,13.10
2022-10-01T18:15:19.382Z,13.10
2022-10-01T18:17:21.924Z,13.10
2022-10-01T18:21:48.293Z,12.90
2022-10-01T18:23:50.813Z,13.00
2022-10-01T18:25:53.694Z,13.00
2022-10-01T18:27:56.486Z,12.90
2022-10-01T18:29:59.282Z,12.90
2022-10-01T18:32:25.881Z,12.90
2022-10-01T18:34:45.621Z,12.90
2022-10-01T18:37:08.335Z,12.80
2022-10-01T18:39:10.744Z,12.80
2022-10-01T18:41:26.915Z,12.80
2022-10-01T18:43:35.124Z,12.70
2022-10-01T18:45:58.773Z,12.70
2022-10-01T18:48:21.205Z,12.60
2022-10-01T18:50:42.323Z,12.60
2022-10-01T18:52:57.134Z,12.60
2022-10-01T18:55:37.282Z,12.60
2022-10-01T18:58:08.433Z,12.50
2022-10-01T19:00:17.935Z,12.40
2022-10-01T19:02:29.631Z,12.30
2022-10-01T19:04:52.583Z,12.20
2022-10-01T19:07:26.023Z,12.20
2022-10-01T19:09:32.934Z,12.00
2022-10-01T19:11:54.844Z,11.90
2022-10-01T19:14:35.499Z,11.80
2022-10-01T19:17:13.725Z,11.80
2022-10-01T19:19:25.184Z,11.70
2022-10-01T19:21:30.482Z,11.70
2022-10-01T19:23:50.322Z,11.60
2022-10-01T19:26:04.183Z,11.50
2022-10-01T19:28:24.630Z,11.50
2022-10-01T19:30:32.564Z,11.30
2022-10-01T19:32:53.554Z,11.30
2022-10-01T19:35:20.642Z,11.30
2022-10-01T19:37:41.924Z,11.20
2022-10-01T19:39:47.174Z,11.20
2022-10-01T19:41:59.309Z,11.20
2022-10-01T19:44:09.703Z,11.10
2022-10-01T19:46:15.673Z,11.10
2022-10-01T19:48:57.616Z,11.00
2022-10-01T19:51:12.935Z,11.00
2022-10-01T19:53:30.194Z,11.00
2022-10-01T19:55:38.739Z,10.90
2022-10-01T19:57:45.534Z,10.90
2022-10-01T19:59:48.646Z,10.90
2022-10-01T20:02:04.042Z,10.90
2022-10-01T20:04:18.774Z,10.90
2022-10-01T20:06:33.820Z,10.80
2022-10-01T20:08:56.153Z,10.90
2022-10-01T20:11:14.384Z,10.90
2022-10-01T20:14:07.885Z,10.80
2022-10-01T20:16:25.968Z,10.80
2022-10-01T20:18:50.092Z,10.80
2022-10-01T20:21:22.783Z,10.80
2022-10-01T20:23:40.951Z,10.70
2022-10-01T20:26:03.504Z,10.70
2022-10-01T20:28:25.595Z,10.70
2022-10-01T20:30:30.953Z,10.70
2022-10-01T20:32:53.835Z,10.70
2022-10-01T20:35:23.214Z,10.70
2022-10-01T20:37:35.404Z,10.70
2022-10-01T20:40:03.035Z,10.70
2022-10-01T20:42:06.474Z,10.70
2022-10-01T20:44:15.902Z,10.70
2022-10-01T20:46:39.038Z,10.70
2022-10-01T20:48:54.333Z,10.70
2022-10-01T20:51:07.013Z,10.60
2022-10-01T20:53:27.675Z,10.60
2022-10-01T20:55:39.622Z,10.60
2022-10-01T20:57:55.214Z,10.60
2022-10-01T21:00:18.573Z,10.60
2022-10-01T21:02:44.733Z,10.60
2022-10-01T21:04:54.614Z,10.60
2022-10-01T21:07:06.981Z,10.50
2022-10-01T21:09:26.122Z,10.50
2022-10-01T21:11:40.623Z,10.50
2022-10-01T21:14:09.933Z,10.50
2022-10-01T21:16:34.860Z,10.50
2022-10-01T21:19:04.103Z,10.50
2022-10-01T21:21:32.723Z,10.50
2022-10-01T21:24:09.274Z,10.50
2022-10-01T21:26:43.782Z,10.50
2022-10-01T21:28:52.523Z,10.60
2022-10-01T21:31:12.834Z,10.50
2022-10-01T21:33:24.915Z,10.50
2022-10-01T21:35:45.440Z,10.50
2022-10-01T21:38:22.702Z,10.50
2022-10-01T21:41:06.617Z,10.50
2022-10-01T21:43:38.035Z,10.50
2022-10-01T21:46:03.093Z,10.50
2022-10-01T21:48:20.734Z,10.40
2022-10-01T21:50:23.222Z,10.40
2022-10-01T21:52:40.243Z,10.40
2022-10-01T21:54:42.532Z,10.40
2022-10-01T21:56:55.501Z,10.40
2022-10-01T21:58:57.945Z,10.40
2022-10-01T22:01:09.063Z,10.40
2022-10-01T22:03:26.374Z,10.40
2022-10-01T22:05:38.523Z,10.40
2022-10-01T22:08:21.135Z,10.40
2022-10-01T22:10:38.015Z,10.40
2022-10-01T22:12:45.864Z,10.40
2022-10-01T22:14:52.063Z,10.30
2022-10-01T22:16:58.184Z,10.40
2022-10-01T22:19:21.905Z,10.40
2022-10-01T22:21:47.453Z,10.40
